createdAt,value
2023-05-07T00:05:48.021Z,44.30
2023-05-07T00:11:49.818Z,42.70
2023-05-07T00:17:51.720Z,42.80
2023-05-07T00:23:54.762Z,45.95
2023-05-07T00:29:56.555Z,44.15
2023-05-07T00:35:58.327Z,41.92
2023-05-07T00:42:01.636Z,42.33
2023-05-07T00:48:04.538Z,38.90
2023-05-07T00:54:06.957Z,39.67
2023-05-07T01:00:11.022Z,33.97
2023-05-07T01:06:13.962Z,36.08
2023-05-07T01:12:17.111Z,31.60
2023-05-07T01:18:19.168Z,33.30
2023-05-07T01:24:21.405Z,34.65
2023-05-07T01:30:23.797Z,30.65
2023-05-07T01:36:28.243Z,32.67
2023-05-07T01:42:31.221Z,32.05
2023-05-07T01:48:33.774Z,40.65
2023-05-07T01:54:35.944Z,41.95
2023-05-07T02:00:38.618Z,44.53
2023-05-07T02:06:40.569Z,44.38
2023-05-07T02:12:44.503Z,43.92
2023-05-07T02:18:46.423Z,46.42
2023-05-07T02:24:48.384Z,48.65
2023-05-07T02:30:50.441Z,47.72
2023-05-07T02:36:52.757Z,41.63
2023-05-07T02:42:58.219Z,44.20
2023-05-07T02:49:00.137Z,41.28
2023-05-07T02:55:01.992Z,41.40
2023-05-07T03:01:03.868Z,43.22
2023-05-07T03:07:28.480Z,42.67
2023-05-07T03:13:30.261Z,37.88
2023-05-07T03:19:32.387Z,40.05
2023-05-07T03:25:34.600Z,44.22
2023-05-07T03:31:36.518Z,40.58
2023-05-07T03:37:39.435Z,40.15
2023-05-07T03:43:41.682Z,40.78
2023-05-07T03:49:46.715Z,42.35
2023-05-07T03:55:49.701Z,41.40
2023-05-07T04:01:52.047Z,35.95
2023-05-07T04:07:58.750Z,35.33
2023-05-07T04:14:06.696Z,32.88
2023-05-07T04:20:11.664Z,29.25
2023-05-07T04:26:14.537Z,28.25
2023-05-07T04:32:19.088Z,25.45
2023-05-07T04:38:21.465Z,25.60
2023-05-07T04:44:26.062Z,27.65
2023-05-07T04:50:28.035Z,25.98
2023-05-07T04:56:34.618Z,23.00
2023-05-07T05:02:37.365Z,25.90
2023-05-07T05:08:39.701Z,24.58
2023-05-07T05:14:41.657Z,25.42
2023-05-07T05:20:43.937Z,23.60
2023-05-07T05:26:47.130Z,25.48
2023-05-07T05:32:49.317Z,23.25
2023-05-07T05:38:51.235Z,25.05
2023-05-07T05:44:53.714Z,26.30
2023-05-07T05:50:55.826Z,26.52
2023-05-07T05:56:58.001Z,26.88
2023-05-07T06:03:00.868Z,24.90
2023-05-07T06:09:03.585Z,24.85
2023-05-07T06:15:12.404Z,22.60
2023-05-07T06:21:16.246Z,22.30
2023-05-07T06:27:18.271Z,20.60
2023-05-07T06:33:21.212Z,21.63
2023-05-07T06:39:23.074Z,19.65
2023-05-07T06:45:26.149Z,19.73
2023-05-07T06:51:29.852Z,19.17
2023-05-07T06:57:36.476Z,20.25
2023-05-07T07:03:38.645Z,17.70
2023-05-07T07:09:40.756Z,17.83
2023-05-07T07:15:44.795Z,18.88
2023-05-07T07:21:47.031Z,15.75
2023-05-07T07:27:58.181Z,14.57
2023-05-07T07:34:06.258Z,13.93
2023-05-07T07:40:09.853Z,15.68
2023-05-07T07:46:13.006Z,15.02
2023-05-07T07:52:15.598Z,15.63
2023-05-07T07:58:19.460Z,17.25
2023-05-07T08:04:23.058Z,16.33
2023-05-07T08:10:25.671Z,14.90
2023-05-07T08:16:34.526Z,14.48
2023-05-07T08:22:38.128Z,11.98
2023-05-07T08:28:41.222Z,10.30
2023-05-07T08:34:43.994Z,12.93
2023-05-07T08:40:46.197Z,11.38
2023-05-07T08:46:56.858Z,12.27
2023-05-07T08:53:01.081Z,13.68
2023-05-07T08:59:04.742Z,10.35
2023-05-07T09:05:07.546Z,11.52
2023-05-07T09:11:10.983Z,12.18
2023-05-07T09:17:12.888Z,12.40
2023-05-07T09:23:15.299Z,10.35
2023-05-07T09:29:19.288Z,11.38
2023-05-07T09:35:22.798Z,11.75
2023-05-07T09:47:48.264Z,16.65
2023-05-07T09:53:53.312Z,13.97
2023-05-07T09:59:59.045Z,14.27
2023-05-07T10:06:04.456Z,13.38
2023-05-07T10:12:08.119Z,14.82
2023-05-07T10:18:12.713Z,15.10
2023-05-07T10:24:26.032Z,13.32
2023-05-07T10:30:41.188Z,13.57
2023-05-07T10:36:44.679Z,13.05
2023-05-07T10:43:02.348Z,12.45
2023-05-07T10:49:08.712Z,13.65
2023-05-07T10:55:19.819Z,13.88
2023-05-07T11:01:59.265Z,11.35
2023-05-07T11:08:16.209Z,17.95
2023-05-07T11:14:45.631Z,13.63
2023-05-07T11:21:00.180Z,15.77
2023-05-07T11:27:13.980Z,15.27
2023-05-07T11:33:19.551Z,14.85
2023-05-07T11:39:32.542Z,15.07
2023-05-07T11:45:36.186Z,15.80
2023-05-07T11:51:38.030Z,15.43
2023-05-07T11:57:40.184Z,14.25
2023-05-07T12:03:43.866Z,13.60
2023-05-07T12:09:46.987Z,14.85
2023-05-07T12:15:56.019Z,15.98
2023-05-07T12:21:58.573Z,13.63
2023-05-07T12:28:02.265Z,13.18
2023-05-07T12:34:04.322Z,14.57
2023-05-07T12:40:11.197Z,13.35
2023-05-07T12:46:14.838Z,13.00
2023-05-07T12:52:16.663Z,13.75
2023-05-07T12:58:29.864Z,12.88
2023-05-07T13:04:31.664Z,10.23
2023-05-07T13:10:35.059Z,11.70
2023-05-07T13:16:36.928Z,10.20
2023-05-07T13:22:38.875Z,9.65
2023-05-07T13:28:41.747Z,10.25
2023-05-07T13:34:43.514Z,10.38
2023-05-07T13:40:45.340Z,11.23
2023-05-07T13:46:47.127Z,11.90
2023-05-07T13:52:52.092Z,10.40
2023-05-07T13:58:59.908Z,10.63
2023-05-07T14:05:02.226Z,10.85
2023-05-07T14:11:04.489Z,12.13
2023-05-07T14:17:06.723Z,10.90
2023-05-07T14:23:08.829Z,10.75
2023-05-07T14:29:10.854Z,10.70
2023-05-07T14:35:13.263Z,10.10
2023-05-07T14:41:17.114Z,10.68
2023-05-07T14:47:20.075Z,10.05
2023-05-07T14:53:22.679Z,9.88
2023-05-07T14:59:26.303Z,11.05
2023-05-07T15:05:29.014Z,9.55
2023-05-07T15:11:31.245Z,9.88
2023-05-07T15:17:36.149Z,8.63
2023-05-07T15:23:39.785Z,8.82
2023-05-07T15:29:41.598Z,10.60
2023-05-07T15:35:43.553Z,11.70
2023-05-07T15:41:45.475Z,11.93
2023-05-07T15:47:47.219Z,10.15
2023-05-07T15:53:49.574Z,12.45
2023-05-07T15:59:51.512Z,11.35
2023-05-07T16:05:53.889Z,11.10
2023-05-07T16:11:56.305Z,15.68
2023-05-07T16:17:59.588Z,11.80
2023-05-07T16:24:01.805Z,11.48
2023-05-07T16:30:03.839Z,12.20
2023-05-07T16:36:06.248Z,14.30
2023-05-07T16:42:08.051Z,10.32
2023-05-07T16:48:09.941Z,12.38
2023-05-07T16:54:11.763Z,11.07
2023-05-07T17:00:14.338Z,10.70
2023-05-07T17:06:16.190Z,12.35
2023-05-07T17:12:17.934Z,12.13
2023-05-07T17:18:19.688Z,12.07
2023-05-07T17:24:21.402Z,10.65
2023-05-07T17:30:23.247Z,11.00
2023-05-07T17:36:25.075Z,10.43
2023-05-07T17:42:26.903Z,10.48
2023-05-07T17:48:28.637Z,9.18
2023-05-07T17:54:30.650Z,13.65
2023-05-07T18:00:32.635Z,9.30
2023-05-07T18:06:34.428Z,9.45
2023-05-07T18:12:36.360Z,9.57
2023-05-07T18:18:38.261Z,12.05
2023-05-07T18:24:39.997Z,10.10
2023-05-07T18:30:41.829Z,11.95
2023-05-07T18:36:43.599Z,10.93
2023-05-07T18:42:45.390Z,10.98
2023-05-07T18:48:47.198Z,11.05
2023-05-07T18:54:49.004Z,10.20
2023-05-07T19:00:51.266Z,10.20
2023-05-07T19:06:53.076Z,9.82
2023-05-07T19:12:55.716Z,9.98
2023-05-07T19:18:57.705Z,10.77
2023-05-07T19:24:59.456Z,9.10
2023-05-07T19:31:01.354Z,10.05
2023-05-07T19:37:03.173Z,11.60
2023-05-07T19:43:04.927Z,8.95
2023-05-07T19:49:06.694Z,8.35
2023-05-07T19:55:08.883Z,8.07
2023-05-07T20:01:10.763Z,6.95
2023-05-07T20:07:12.565Z,8.30
2023-05-07T20:13:14.384Z,7.82
2023-05-07T20:19:16.242Z,8.90
2023-05-07T20:25:17.998Z,6.60
2023-05-07T20:31:20.629Z,8.75
2023-05-07T20:37:22.585Z,8.75
2023-05-07T20:43:24.358Z,7.32
2023-05-07T20:49:26.141Z,8.52
2023-05-07T20:55:27.895Z,8.32
2023-05-07T21:01:29.881Z,7.93
2023-05-07T21:07:31.717Z,9.40
2023-05-07T21:13:33.460Z,9.13
2023-05-07T21:19:35.600Z,7.70
2023-05-07T21:25:38.797Z,9.45
2023-05-07T21:31:40.743Z,9.38
2023-05-07T21:37:42.648Z,10.15
2023-05-07T21:43:44.391Z,9.95
2023-05-07T21:49:46.823Z,9.50
2023-05-07T21:55:48.614Z,9.18
2023-05-07T22:01:50.553Z,10.48
2023-05-07T22:07:52.353Z,10.13
2023-05-07T22:13:54.110Z,10.48
2023-05-07T22:19:55.925Z,11.52
2023-05-07T22:25:58.357Z,13.00
2023-05-07T22:32:00.281Z,9.93
2023-05-07T22:38:02.230Z,13.27
2023-05-07T22:44:04.097Z,12.88
2023-05-07T22:50:06.619Z,14.00
2023-05-07T22:56:09.556Z,12.70
2023-05-07T23:02:11.483Z,12.90
2023-05-07T23:08:13.291Z,13.32
2023-05-07T23:14:15.269Z,13.07
2023-05-07T23:20:17.192Z,14.60
2023-05-07T23:26:18.976Z,13.43
2023-05-07T23:32:20.947Z,15.48
2023-05-07T23:38:22.752Z,17.58
2023-05-07T23:44:24.526Z,15.55
2023-05-07T23:50:26.349Z,16.60
2023-05-07T23:56:28.262Z,17.10
